sensor_id;sensor_type;location;lat;lon;timestamp;temperature;humidity
34137;DHT22;20414;50.860;4.382;2022-08-21T00:00:39;25.30;53.20
34137;DHT22;20414;50.860;4.382;2022-08-21T00:03:07;25.30;53.20
34137;DHT22;20414;50.860;4.382;2022-08-21T00:05:37;25.30;53.20
34137;DHT22;20414;50.860;4.382;2022-08-21T00:08:03;25.30;53.20
34137;DHT22;20414;50.860;4.382;2022-08-21T00:10:29;25.30;53.20
34137;DHT22;20414;50.860;4.382;2022-08-21T00:12:55;25.30;53.20
34137;DHT22;20414;50.860;4.382;2022-08-21T00:15:27;25.30;53.20
34137;DHT22;20414;50.860;4.382;2022-08-21T00:17:54;25.30;53.20
34137;DHT22;20414;50.860;4.382;2022-08-21T00:20:20;25.30;53.20
34137;DHT22;20414;50.860;4.382;2022-08-21T00:22:47;25.30;53.20
34137;DHT22;20414;50.860;4.382;2022-08-21T00:25:13;25.30;53.20
34137;DHT22;20414;50.860;4.382;2022-08-21T00:27:39;25.30;53.20
34137;DHT22;20414;50.860;4.382;2022-08-21T00:30:08;25.30;53.20
34137;DHT22;20414;50.860;4.382;2022-08-21T00:32:37;25.30;53.20
34137;DHT22;20414;50.860;4.382;2022-08-21T00:35:05;25.30;53.20
34137;DHT22;20414;50.860;4.382;2022-08-21T00:37:32;25.30;53.20
34137;DHT22;20414;50.860;4.382;2022-08-21T00:39:57;25.30;53.80
34137;DHT22;20414;50.860;4.382;2022-08-21T00:42:23;25.30;53.30
34137;DHT22;20414;50.860;4.382;2022-08-21T00:44:49;25.30;53.30
34137;DHT22;20414;50.860;4.382;2022-08-21T00:47:17;25.30;53.20
34137;DHT22;20414;50.860;4.382;2022-08-21T00:49:43;25.30;53.20
34137;DHT22;20414;50.860;4.382;2022-08-21T00:52:13;25.30;53.20
34137;DHT22;20414;50.860;4.382;2022-08-21T00:54:40;25.30;53.20
34137;DHT22;20414;50.860;4.382;2022-08-21T00:57:14;25.20;53.20
34137;DHT22;20414;50.860;4.382;2022-08-21T00:59:43;25.30;53.20
34137;DHT22;20414;50.860;4.382;2022-08-21T01:02:11;25.30;53.30
34137;DHT22;20414;50.860;4.382;2022-08-21T01:04:37;25.20;53.20
34137;DHT22;20414;50.860;4.382;2022-08-21T01:07:04;25.20;53.20
34137;DHT22;20414;50.860;4.382;2022-08-21T01:09:30;25.20;53.20
34137;DHT22;20414;50.860;4.382;2022-08-21T01:11:55;25.20;53.20
34137;DHT22;20414;50.860;4.382;2022-08-21T01:14:21;25.20;53.20
34137;DHT22;20414;50.860;4.382;2022-08-21T01:16:50;25.20;53.20
34137;DHT22;20414;50.860;4.382;2022-08-21T01:19:18;25.20;53.20
34137;DHT22;20414;50.860;4.382;2022-08-21T01:21:44;25.20;53.20
34137;DHT22;20414;50.860;4.382;2022-08-21T01:24:11;25.20;53.30
34137;DHT22;20414;50.860;4.382;2022-08-21T01:26:37;25.20;53.20
34137;DHT22;20414;50.860;4.382;2022-08-21T01:31:38;25.20;53.20
34137;DHT22;20414;50.860;4.382;2022-08-21T01:34:04;25.20;53.20
34137;DHT22;20414;50.860;4.382;2022-08-21T01:36:30;25.20;53.20
34137;DHT22;20414;50.860;4.382;2022-08-21T01:38:56;25.20;53.20
34137;DHT22;20414;50.860;4.382;2022-08-21T01:41:22;25.20;53.20
34137;DHT22;20414;50.860;4.382;2022-08-21T01:43:48;25.20;53.20
34137;DHT22;20414;50.860;4.382;2022-08-21T01:46:14;25.20;53.20
34137;DHT22;20414;50.860;4.382;2022-08-21T01:48:40;25.20;53.20
34137;DHT22;20414;50.860;4.382;2022-08-21T01:51:07;25.20;53.20
34137;DHT22;20414;50.860;4.382;2022-08-21T01:53:35;25.20;53.20
34137;DHT22;20414;50.860;4.382;2022-08-21T01:56:05;25.20;53.20
34137;DHT22;20414;50.860;4.382;2022-08-21T01:58:32;25.20;53.30
34137;DHT22;20414;50.860;4.382;2022-08-21T02:01:00;25.10;53.20
34137;DHT22;20414;50.860;4.382;2022-08-21T02:03:30;25.10;53.20
34137;DHT22;20414;50.860;4.382;2022-08-21T02:05:56;25.10;53.20
34137;DHT22;20414;50.860;4.382;2022-08-21T02:08:22;25.10;53.30
34137;DHT22;20414;50.860;4.382;2022-08-21T02:10:50;25.10;53.20
34137;DHT22;20414;50.860;4.382;2022-08-21T02:13:16;25.20;53.30
34137;DHT22;20414;50.860;4.382;2022-08-21T02:15:42;25.10;53.30
34137;DHT22;20414;50.860;4.382;2022-08-21T02:18:07;25.10;53.20
34137;DHT22;20414;50.860;4.382;2022-08-21T02:20:36;25.10;53.20
34137;DHT22;20414;50.860;4.382;2022-08-21T02:23:03;25.10;53.20
34137;DHT22;20414;50.860;4.382;2022-08-21T02:25:30;25.10;53.20
34137;DHT22;20414;50.860;4.382;2022-08-21T02:27:56;25.10;53.20
34137;DHT22;20414;50.860;4.382;2022-08-21T02:30:26;25.10;53.20
34137;DHT22;20414;50.860;4.382;2022-08-21T02:32:53;25.10;53.30
34137;DHT22;20414;50.860;4.382;2022-08-21T02:35:19;25.10;53.20
34137;DHT22;20414;50.860;4.382;2022-08-21T02:37:57;25.10;53.20
34137;DHT22;20414;50.860;4.382;2022-08-21T02:40:26;25.10;53.20
34137;DHT22;20414;50.860;4.382;2022-08-21T02:42:52;25.10;53.30
34137;DHT22;20414;50.860;4.382;2022-08-21T02:45:19;25.10;53.20
34137;DHT22;20414;50.860;4.382;2022-08-21T02:47:50;25.10;53.20
34137;DHT22;20414;50.860;4.382;2022-08-21T02:50:45;25.10;53.30
34137;DHT22;20414;50.860;4.382;2022-08-21T02:53:09;25.10;53.30
34137;DHT22;20414;50.860;4.382;2022-08-21T02:55:36;25.10;53.30
34137;DHT22;20414;50.860;4.382;2022-08-21T02:58:04;25.10;53.30
34137;DHT22;20414;50.860;4.382;2022-08-21T03:00:32;25.10;53.30
34137;DHT22;20414;50.860;4.382;2022-08-21T03:02:58;25.10;53.30
34137;DHT22;20414;50.860;4.382;2022-08-21T03:05:25;25.10;53.80
34137;DHT22;20414;50.860;4.382;2022-08-21T03:07:51;25.10;53.30
34137;DHT22;20414;50.860;4.382;2022-08-21T03:10:19;25.10;53.30
34137;DHT22;20414;50.860;4.382;2022-08-21T03:12:46;25.10;53.30
34137;DHT22;20414;50.860;4.382;2022-08-21T03:15:16;25.00;53.20
34137;DHT22;20414;50.860;4.382;2022-08-21T03:17:43;25.00;53.20
34137;DHT22;20414;50.860;4.382;2022-08-21T03:20:10;25.00;53.20
34137;DHT22;20414;50.860;4.382;2022-08-21T03:22:36;25.00;53.20
34137;DHT22;20414;50.860;4.382;2022-08-21T03:25:03;25.00;53.30
34137;DHT22;20414;50.860;4.382;2022-08-21T03:27:28;25.00;53.30
34137;DHT22;20414;50.860;4.382;2022-08-21T03:29:56;25.00;53.20
34137;DHT22;20414;50.860;4.382;2022-08-21T03:32:22;25.00;53.20
34137;DHT22;20414;50.860;4.382;2022-08-21T03:34:48;25.00;53.20
34137;DHT22;20414;50.860;4.382;2022-08-21T03:37:14;25.00;53.30
34137;DHT22;20414;50.860;4.382;2022-08-21T03:39:40;25.00;53.30
34137;DHT22;20414;50.860;4.382;2022-08-21T03:42:07;25.00;53.30
34137;DHT22;20414;50.860;4.382;2022-08-21T03:44:34;25.00;53.30
34137;DHT22;20414;50.860;4.382;2022-08-21T03:47:00;25.00;53.40
34137;DHT22;20414;50.860;4.382;2022-08-21T03:49:26;25.00;53.30
34137;DHT22;20414;50.860;4.382;2022-08-21T03:51:52;25.00;53.30
34137;DHT22;20414;50.860;4.382;2022-08-21T03:54:18;25.00;53.30
34137;DHT22;20414;50.860;4.382;2022-08-21T03:56:44;25.00;53.30
34137;DHT22;20414;50.860;4.382;2022-08-21T03:59:10;25.00;53.30
34137;DHT22;20414;50.860;4.382;2022-08-21T04:01:36;25.00;53.30
34137;DHT22;20414;50.860;4.382;2022-08-21T04:04:03;25.00;53.90
34137;DHT22;20414;50.860;4.382;2022-08-21T04:06:28;24.90;53.30
34137;DHT22;20414;50.860;4.382;2022-08-21T04:08:54;24.90;53.30
34137;DHT22;20414;50.860;4.382;2022-08-21T04:11:20;24.90;53.20
34137;DHT22;20414;50.860;4.382;2022-08-21T04:13:46;24.90;53.30
34137;DHT22;20414;50.860;4.382;2022-08-21T04:16:13;24.90;53.20
34137;DHT22;20414;50.860;4.382;2022-08-21T04:18:39;24.90;53.30
34137;DHT22;20414;50.860;4.382;2022-08-21T04:21:06;24.90;53.30
34137;DHT22;20414;50.860;4.382;2022-08-21T04:23:33;24.90;53.30
34137;DHT22;20414;50.860;4.382;2022-08-21T04:25:58;24.90;53.30
34137;DHT22;20414;50.860;4.382;2022-08-21T04:28:26;24.90;53.30
34137;DHT22;20414;50.860;4.382;2022-08-21T04:30:52;24.90;53.30
34137;DHT22;20414;50.860;4.382;2022-08-21T04:33:19;24.90;53.30
34137;DHT22;20414;50.860;4.382;2022-08-21T04:35:45;24.90;53.30
34137;DHT22;20414;50.860;4.382;2022-08-21T04:38:10;24.90;53.30
34137;DHT22;20414;50.860;4.382;2022-08-21T04:40:37;24.90;53.30
34137;DHT22;20414;50.860;4.382;2022-08-21T04:43:05;24.90;53.30
34137;DHT22;20414;50.860;4.382;2022-08-21T04:45:42;24.90;53.30
34137;DHT22;20414;50.860;4.382;2022-08-21T04:48:10;24.90;53.40
34137;DHT22;20414;50.860;4.382;2022-08-21T04:53:08;24.90;53.30
34137;DHT22;20414;50.860;4.382;2022-08-21T04:55:35;24.80;53.30
34137;DHT22;20414;50.860;4.382;2022-08-21T04:58:02;24.90;53.30
34137;DHT22;20414;50.860;4.382;2022-08-21T05:00:28;24.90;53.40
34137;DHT22;20414;50.860;4.382;2022-08-21T05:02:55;24.90;53.40
34137;DHT22;20414;50.860;4.382;2022-08-21T05:05:24;24.90;53.40
34137;DHT22;20414;50.860;4.382;2022-08-21T05:07:51;24.80;53.30
34137;DHT22;20414;50.860;4.382;2022-08-21T05:10:18;24.90;53.40
34137;DHT22;20414;50.860;4.382;2022-08-21T05:12:44;24.90;53.40
34137;DHT22;20414;50.860;4.382;2022-08-21T05:15:11;24.90;53.40
34137;DHT22;20414;50.860;4.382;2022-08-21T05:17:37;24.90;53.40
34137;DHT22;20414;50.860;4.382;2022-08-21T05:20:03;24.90;53.40
34137;DHT22;20414;50.860;4.382;2022-08-21T05:22:29;24.80;53.30
34137;DHT22;20414;50.860;4.382;2022-08-21T05:24:56;24.80;53.30
34137;DHT22;20414;50.860;4.382;2022-08-21T05:27:22;24.80;53.30
34137;DHT22;20414;50.860;4.382;2022-08-21T05:29:47;24.80;53.30
34137;DHT22;20414;50.860;4.382;2022-08-21T05:32:13;24.80;53.40
34137;DHT22;20414;50.860;4.382;2022-08-21T05:34:39;24.80;53.30
34137;DHT22;20414;50.860;4.382;2022-08-21T05:37:05;24.80;53.30
34137;DHT22;20414;50.860;4.382;2022-08-21T05:39:31;24.80;53.90
34137;DHT22;20414;50.860;4.382;2022-08-21T05:41:57;24.80;53.30
34137;DHT22;20414;50.860;4.382;2022-08-21T05:44:23;24.80;53.30
34137;DHT22;20414;50.860;4.382;2022-08-21T05:46:48;24.80;53.30
34137;DHT22;20414;50.860;4.382;2022-08-21T05:49:14;24.80;53.30
34137;DHT22;20414;50.860;4.382;2022-08-21T05:51:40;24.80;53.30
34137;DHT22;20414;50.860;4.382;2022-08-21T05:54:06;24.80;53.30
34137;DHT22;20414;50.860;4.382;2022-08-21T05:56:32;24.80;53.30
34137;DHT22;20414;50.860;4.382;2022-08-21T05:58:58;24.80;53.40
34137;DHT22;20414;50.860;4.382;2022-08-21T06:01:24;24.80;53.30
34137;DHT22;20414;50.860;4.382;2022-08-21T06:03:50;24.80;53.30
34137;DHT22;20414;50.860;4.382;2022-08-21T06:06:16;24.80;53.30
34137;DHT22;20414;50.860;4.382;2022-08-21T06:08:42;24.80;53.40
34137;DHT22;20414;50.860;4.382;2022-08-21T06:11:08;24.80;53.40
34137;DHT22;20414;50.860;4.382;2022-08-21T06:13:34;24.70;53.40
34137;DHT22;20414;50.860;4.382;2022-08-21T06:16:09;24.70;53.40
34137;DHT22;20414;50.860;4.382;2022-08-21T06:18:36;24.70;53.30
34137;DHT22;20414;50.860;4.382;2022-08-21T06:21:02;24.70;53.30
34137;DHT22;20414;50.860;4.382;2022-08-21T06:23:28;24.70;53.40
34137;DHT22;20414;50.860;4.382;2022-08-21T06:25:53;24.70;53.40
34137;DHT22;20414;50.860;4.382;2022-08-21T06:28:19;24.70;53.40
34137;DHT22;20414;50.860;4.382;2022-08-21T06:30:45;24.70;53.40
34137;DHT22;20414;50.860;4.382;2022-08-21T06:33:11;24.70;53.40
34137;DHT22;20414;50.860;4.382;2022-08-21T06:35:36;24.70;53.40
34137;DHT22;20414;50.860;4.382;2022-08-21T06:38:03;24.70;53.40
34137;DHT22;20414;50.860;4.382;2022-08-21T06:40:29;24.70;53.50
34137;DHT22;20414;50.860;4.382;2022-08-21T06:42:57;24.70;53.50
34137;DHT22;20414;50.860;4.382;2022-08-21T06:45:23;24.70;54.10
34137;DHT22;20414;50.860;4.382;2022-08-21T06:47:49;24.70;53.50
34137;DHT22;20414;50.860;4.382;2022-08-21T06:50:15;24.70;53.50
34137;DHT22;20414;50.860;4.382;2022-08-21T06:52:41;24.70;53.50
34137;DHT22;20414;50.860;4.382;2022-08-21T06:55:08;24.70;53.50
34137;DHT22;20414;50.860;4.382;2022-08-21T06:57:35;24.70;53.50
34137;DHT22;20414;50.860;4.382;2022-08-21T07:00:02;24.70;53.50
34137;DHT22;20414;50.860;4.382;2022-08-21T07:02:28;24.70;53.60
34137;DHT22;20414;50.860;4.382;2022-08-21T07:04:54;24.70;53.60
34137;DHT22;20414;50.860;4.382;2022-08-21T07:07:20;24.70;53.60
34137;DHT22;20414;50.860;4.382;2022-08-21T07:09:46;24.60;53.50
34137;DHT22;20414;50.860;4.382;2022-08-21T07:12:12;24.60;53.50
34137;DHT22;20414;50.860;4.382;2022-08-21T07:14:38;24.60;53.60
34137;DHT22;20414;50.860;4.382;2022-08-21T07:17:03;24.60;53.60
34137;DHT22;20414;50.860;4.382;2022-08-21T07:19:29;24.60;53.60
34137;DHT22;20414;50.860;4.382;2022-08-21T07:21:58;24.60;53.60
34137;DHT22;20414;50.860;4.382;2022-08-21T07:24:25;24.60;53.60
34137;DHT22;20414;50.860;4.382;2022-08-21T07:26:51;24.60;53.60
34137;DHT22;20414;50.860;4.382;2022-08-21T07:29:17;24.60;53.60
34137;DHT22;20414;50.860;4.382;2022-08-21T07:31:44;24.60;53.60
34137;DHT22;20414;50.860;4.382;2022-08-21T07:34:13;24.60;53.60
34137;DHT22;20414;50.860;4.382;2022-08-21T07:36:39;24.60;53.60
34137;DHT22;20414;50.860;4.382;2022-08-21T07:39:04;24.60;53.60
34137;DHT22;20414;50.860;4.382;2022-08-21T07:41:30;24.60;53.60
34137;DHT22;20414;50.860;4.382;2022-08-21T07:43:57;24.60;53.60
34137;DHT22;20414;50.860;4.382;2022-08-21T07:46:24;24.60;53.60
34137;DHT22;20414;50.860;4.382;2022-08-21T07:48:50;24.60;53.60
34137;DHT22;20414;50.860;4.382;2022-08-21T07:51:17;24.60;53.60
34137;DHT22;20414;50.860;4.382;2022-08-21T07:53:52;24.60;53.60
34137;DHT22;20414;50.860;4.382;2022-08-21T07:56:18;24.60;53.60
34137;DHT22;20414;50.860;4.382;2022-08-21T07:58:44;24.60;53.60
34137;DHT22;20414;50.860;4.382;2022-08-21T08:01:10;24.60;53.60
34137;DHT22;20414;50.860;4.382;2022-08-21T08:03:36;24.60;53.60
34137;DHT22;20414;50.860;4.382;2022-08-21T08:06:02;24.60;53.60
34137;DHT22;20414;50.860;4.382;2022-08-21T08:08:30;24.60;53.60
34137;DHT22;20414;50.860;4.382;2022-08-21T08:10:56;24.60;53.70
34137;DHT22;20414;50.860;4.382;2022-08-21T08:13:23;24.60;53.70
34137;DHT22;20414;50.860;4.382;2022-08-21T08:15:49;24.60;53.70
34137;DHT22;20414;50.860;4.382;2022-08-21T08:18:15;24.50;53.60
34137;DHT22;20414;50.860;4.382;2022-08-21T08:20:41;24.50;53.60
34137;DHT22;20414;50.860;4.382;2022-08-21T08:23:09;24.50;53.60
34137;DHT22;20414;50.860;4.382;2022-08-21T08:25:35;24.50;53.60
34137;DHT22;20414;50.860;4.382;2022-08-21T08:28:00;24.60;53.70
34137;DHT22;20414;50.860;4.382;2022-08-21T08:30:26;24.50;53.70
34137;DHT22;20414;50.860;4.382;2022-08-21T08:32:51;24.50;53.60
34137;DHT22;20414;50.860;4.382;2022-08-21T08:35:17;24.50;53.60
34137;DHT22;20414;50.860;4.382;2022-08-21T08:37:43;24.50;53.60
34137;DHT22;20414;50.860;4.382;2022-08-21T08:40:18;24.50;53.70
34137;DHT22;20414;50.860;4.382;2022-08-21T08:42:46;24.50;53.70
34137;DHT22;20414;50.860;4.382;2022-08-21T08:45:16;24.50;53.60
34137;DHT22;20414;50.860;4.382;2022-08-21T08:47:53;24.50;53.70
34137;DHT22;20414;50.860;4.382;2022-08-21T08:50:47;24.50;53.60
34137;DHT22;20414;50.860;4.382;2022-08-21T08:53:30;24.50;53.60
34137;DHT22;20414;50.860;4.382;2022-08-21T08:55:57;24.60;53.70
34137;DHT22;20414;50.860;4.382;2022-08-21T09:00:55;24.50;54.20
34137;DHT22;20414;50.860;4.382;2022-08-21T09:03:23;24.60;53.60
34137;DHT22;20414;50.860;4.382;2022-08-21T09:08:39;24.60;53.60
34137;DHT22;20414;50.860;4.382;2022-08-21T09:14:00;24.60;53.60
34137;DHT22;20414;50.860;4.382;2022-08-21T09:25:22;24.60;53.60
34137;DHT22;20414;50.860;4.382;2022-08-21T09:27:48;24.60;53.60
34137;DHT22;20414;50.860;4.382;2022-08-21T09:30:14;24.50;53.60
34137;DHT22;20414;50.860;4.382;2022-08-21T09:32:40;24.50;53.60
34137;DHT22;20414;50.860;4.382;2022-08-21T09:35:12;24.60;53.70
34137;DHT22;20414;50.860;4.382;2022-08-21T09:37:58;24.50;53.60
34137;DHT22;20414;50.860;4.382;2022-08-21T09:40:39;24.50;53.60
34137;DHT22;20414;50.860;4.382;2022-08-21T09:45:32;24.50;53.60
34137;DHT22;20414;50.860;4.382;2022-08-21T09:48:28;24.60;53.70
34137;DHT22;20414;50.860;4.382;2022-08-21T09:51:06;24.50;53.60
34137;DHT22;20414;50.860;4.382;2022-08-21T09:53:33;24.50;53.60
34137;DHT22;20414;50.860;4.382;2022-08-21T09:55:59;24.50;53.60
34137;DHT22;20414;50.860;4.382;2022-08-21T09:58:46;24.50;53.60
34137;DHT22;20414;50.860;4.382;2022-08-21T10:01:25;24.50;53.60
34137;DHT22;20414;50.860;4.382;2022-08-21T10:04:09;24.50;53.60
34137;DHT22;20414;50.860;4.382;2022-08-21T10:06:35;24.50;53.60
34137;DHT22;20414;50.860;4.382;2022-08-21T10:09:13;24.50;53.60
34137;DHT22;20414;50.860;4.382;2022-08-21T10:11:46;24.50;53.60
34137;DHT22;20414;50.860;4.382;2022-08-21T10:19:57;24.50;53.60
34137;DHT22;20414;50.860;4.382;2022-08-21T10:25:26;24.50;53.60
34137;DHT22;20414;50.860;4.382;2022-08-21T10:28:39;24.50;53.70
34137;DHT22;20414;50.860;4.382;2022-08-21T10:31:18;24.50;53.60
34137;DHT22;20414;50.860;4.382;2022-08-21T10:36:33;24.50;53.60
34137;DHT22;20414;50.860;4.382;2022-08-21T10:44:26;24.50;53.60
34137;DHT22;20414;50.860;4.382;2022-08-21T10:47:02;24.50;53.60
34137;DHT22;20414;50.860;4.382;2022-08-21T10:49:44;24.50;53.60
34137;DHT22;20414;50.860;4.382;2022-08-21T10:55:12;24.60;53.70
34137;DHT22;20414;50.860;4.382;2022-08-21T10:57:47;24.50;53.60
34137;DHT22;20414;50.860;4.382;2022-08-21T11:00:19;24.50;53.60
34137;DHT22;20414;50.860;4.382;2022-08-21T11:05:35;24.50;53.60
34137;DHT22;20414;50.860;4.382;2022-08-21T11:08:12;24.50;53.60
34137;DHT22;20414;50.860;4.382;2022-08-21T11:10:48;24.50;53.60
34137;DHT22;20414;50.860;4.382;2022-08-21T11:29:51;24.50;53.60
34137;DHT22;20414;50.860;4.382;2022-08-21T11:35:16;24.60;53.70
34137;DHT22;20414;50.860;4.382;2022-08-21T11:46:36;24.60;53.70
34137;DHT22;20414;50.860;4.382;2022-08-21T11:55:13;24.60;53.60
34137;DHT22;20414;50.860;4.382;2022-08-21T11:57:49;24.60;54.20
34137;DHT22;20414;50.860;4.382;2022-08-21T12:02:53;24.60;53.60
34137;DHT22;20414;50.860;4.382;2022-08-21T12:05:36;24.60;53.70
34137;DHT22;20414;50.860;4.382;2022-08-21T12:08:05;24.60;53.60
34137;DHT22;20414;50.860;4.382;2022-08-21T12:10:38;24.50;53.60
34137;DHT22;20414;50.860;4.382;2022-08-21T12:13:26;24.50;53.60
34137;DHT22;20414;50.860;4.382;2022-08-21T12:15:52;24.50;53.60
34137;DHT22;20414;50.860;4.382;2022-08-21T12:18:44;24.60;53.60
34137;DHT22;20414;50.860;4.382;2022-08-21T12:21:27;24.50;53.60
34137;DHT22;20414;50.860;4.382;2022-08-21T12:24:49;24.60;53.60
34137;DHT22;20414;50.860;4.382;2022-08-21T12:26:56;24.60;53.70
34137;DHT22;20414;50.860;4.382;2022-08-21T12:29:26;24.60;53.60
34137;DHT22;20414;50.860;4.382;2022-08-21T12:34:46;24.60;53.70
34137;DHT22;20414;50.860;4.382;2022-08-21T12:39:48;24.60;53.60
34137;DHT22;20414;50.860;4.382;2022-08-21T12:42:22;24.60;53.60
34137;DHT22;20414;50.860;4.382;2022-08-21T12:45:02;24.60;53.60
34137;DHT22;20414;50.860;4.382;2022-08-21T12:47:45;24.60;53.60
34137;DHT22;20414;50.860;4.382;2022-08-21T12:50:41;24.60;53.60
34137;DHT22;20414;50.860;4.382;2022-08-21T12:53:08;24.60;53.60
34137;DHT22;20414;50.860;4.382;2022-08-21T12:55:35;24.60;53.60
34137;DHT22;20414;50.860;4.382;2022-08-21T12:58:05;24.60;53.60
34137;DHT22;20414;50.860;4.382;2022-08-21T13:00:31;24.60;53.60
34137;DHT22;20414;50.860;4.382;2022-08-21T13:02:57;24.60;53.60
34137;DHT22;20414;50.860;4.382;2022-08-21T13:05:33;24.60;53.60
34137;DHT22;20414;50.860;4.382;2022-08-21T13:08:04;24.60;53.60
34137;DHT22;20414;50.860;4.382;2022-08-21T13:10:32;24.60;53.60
34137;DHT22;20414;50.860;4.382;2022-08-21T13:13:05;24.60;53.60
34137;DHT22;20414;50.860;4.382;2022-08-21T13:15:34;24.60;53.60
34137;DHT22;20414;50.860;4.382;2022-08-21T13:18:02;24.60;53.60
34137;DHT22;20414;50.860;4.382;2022-08-21T13:22:55;24.60;53.60
34137;DHT22;20414;50.860;4.382;2022-08-21T13:25:26;24.60;53.60
34137;DHT22;20414;50.860;4.382;2022-08-21T13:28:07;24.60;53.60
34137;DHT22;20414;50.860;4.382;2022-08-21T13:30:33;24.60;53.60
34137;DHT22;20414;50.860;4.382;2022-08-21T13:33:02;24.60;53.60
34137;DHT22;20414;50.860;4.382;2022-08-21T13:35:44;24.60;53.60
34137;DHT22;20414;50.860;4.382;2022-08-21T13:38:10;24.60;53.60
34137;DHT22;20414;50.860;4.382;2022-08-21T13:40:49;24.60;54.10
34137;DHT22;20414;50.860;4.382;2022-08-21T13:43:21;24.60;53.60
34137;DHT22;20414;50.860;4.382;2022-08-21T13:45:50;24.60;53.60
34137;DHT22;20414;50.860;4.382;2022-08-21T13:48:17;24.60;53.60
34137;DHT22;20414;50.860;4.382;2022-08-21T13:50:43;24.60;53.50
34137;DHT22;20414;50.860;4.382;2022-08-21T13:55:58;24.60;53.60
34137;DHT22;20414;50.860;4.382;2022-08-21T13:58:32;24.60;53.60
34137;DHT22;20414;50.860;4.382;2022-08-21T14:01:00;24.60;53.50
34137;DHT22;20414;50.860;4.382;2022-08-21T14:03:47;24.60;53.50
34137;DHT22;20414;50.860;4.382;2022-08-21T14:06:22;24.60;53.50
34137;DHT22;20414;50.860;4.382;2022-08-21T14:08:55;24.60;53.60
34137;DHT22;20414;50.860;4.382;2022-08-21T14:11:23;24.60;53.50
34137;DHT22;20414;50.860;4.382;2022-08-21T14:13:56;24.60;53.50
34137;DHT22;20414;50.860;4.382;2022-08-21T14:16:26;24.60;53.50
34137;DHT22;20414;50.860;4.382;2022-08-21T14:19:07;24.60;53.50
34137;DHT22;20414;50.860;4.382;2022-08-21T14:21:38;24.60;53.50
34137;DHT22;20414;50.860;4.382;2022-08-21T14:24:08;24.60;53.50
34137;DHT22;20414;50.860;4.382;2022-08-21T14:26:42;24.60;53.50
34137;DHT22;20414;50.860;4.382;2022-08-21T14:29:11;24.60;53.50
34137;DHT22;20414;50.860;4.382;2022-08-21T14:31:38;24.60;53.50
34137;DHT22;20414;50.860;4.382;2022-08-21T14:34:04;24.60;53.50
34137;DHT22;20414;50.860;4.382;2022-08-21T14:36:30;24.70;53.60
34137;DHT22;20414;50.860;4.382;2022-08-21T14:38:56;24.60;53.50
34137;DHT22;20414;50.860;4.382;2022-08-21T14:41:25;24.60;53.50
34137;DHT22;20414;50.860;4.382;2022-08-21T14:43:53;24.60;54.10
34137;DHT22;20414;50.860;4.382;2022-08-21T14:46:28;24.60;53.50
34137;DHT22;20414;50.860;4.382;2022-08-21T14:48:55;24.70;53.50
34137;DHT22;20414;50.860;4.382;2022-08-21T14:51:20;24.60;53.50
34137;DHT22;20414;50.860;4.382;2022-08-21T14:53:47;24.60;53.50
34137;DHT22;20414;50.860;4.382;2022-08-21T14:56:13;24.60;53.50
34137;DHT22;20414;50.860;4.382;2022-08-21T14:58:43;24.60;53.50
34137;DHT22;20414;50.860;4.382;2022-08-21T15:01:11;24.60;53.50
34137;DHT22;20414;50.860;4.382;2022-08-21T15:03:38;24.70;53.50
34137;DHT22;20414;50.860;4.382;2022-08-21T15:06:06;24.70;53.50
34137;DHT22;20414;50.860;4.382;2022-08-21T15:08:32;24.60;53.50
34137;DHT22;20414;50.860;4.382;2022-08-21T15:10:59;24.70;53.50
34137;DHT22;20414;50.860;4.382;2022-08-21T15:13:25;24.70;53.50
34137;DHT22;20414;50.860;4.382;2022-08-21T15:15:51;24.70;53.50
34137;DHT22;20414;50.860;4.382;2022-08-21T15:18:19;24.70;53.50
34137;DHT22;20414;50.860;4.382;2022-08-21T15:20:45;24.70;53.50
34137;DHT22;20414;50.860;4.382;2022-08-21T15:23:10;24.70;53.50
34137;DHT22;20414;50.860;4.382;2022-08-21T15:25:36;24.70;53.50
34137;DHT22;20414;50.860;4.382;2022-08-21T15:28:05;24.70;53.50
34137;DHT22;20414;50.860;4.382;2022-08-21T15:30:31;24.70;53.50
34137;DHT22;20414;50.860;4.382;2022-08-21T15:32:57;24.70;53.50
34137;DHT22;20414;50.860;4.382;2022-08-21T15:35:23;24.70;53.50
34137;DHT22;20414;50.860;4.382;2022-08-21T15:37:48;24.70;53.50
34137;DHT22;20414;50.860;4.382;2022-08-21T15:40:15;24.70;53.40
34137;DHT22;20414;50.860;4.382;2022-08-21T15:42:42;24.70;53.50
34137;DHT22;20414;50.860;4.382;2022-08-21T15:45:09;24.70;53.50
34137;DHT22;20414;50.860;4.382;2022-08-21T15:47:38;24.70;53.40
34137;DHT22;20414;50.860;4.382;2022-08-21T15:50:08;24.70;53.40
34137;DHT22;20414;50.860;4.382;2022-08-21T15:52:33;24.70;53.50
34137;DHT22;20414;50.860;4.382;2022-08-21T15:54:59;24.70;53.40
34137;DHT22;20414;50.860;4.382;2022-08-21T15:57:25;24.70;53.40
34137;DHT22;20414;50.860;4.382;2022-08-21T15:59:57;24.70;53.40
34137;DHT22;20414;50.860;4.382;2022-08-21T16:02:25;24.70;53.40
34137;DHT22;20414;50.860;4.382;2022-08-21T16:04:52;24.70;53.40
34137;DHT22;20414;50.860;4.382;2022-08-21T16:07:18;24.70;53.40
34137;DHT22;20414;50.860;4.382;2022-08-21T16:09:44;24.70;53.40
34137;DHT22;20414;50.860;4.382;2022-08-21T16:12:17;24.70;53.30
34137;DHT22;20414;50.860;4.382;2022-08-21T16:14:44;24.70;53.40
34137;DHT22;20414;50.860;4.382;2022-08-21T16:17:10;24.70;53.30
34137;DHT22;20414;50.860;4.382;2022-08-21T16:19:37;24.70;53.40
34137;DHT22;20414;50.860;4.382;2022-08-21T16:22:03;24.70;53.40
34137;DHT22;20414;50.860;4.382;2022-08-21T16:24:29;24.70;53.40
34137;DHT22;20414;50.860;4.382;2022-08-21T16:26:55;24.70;53.40
34137;DHT22;20414;50.860;4.382;2022-08-21T16:29:21;24.70;53.30
34137;DHT22;20414;50.860;4.382;2022-08-21T16:31:48;24.70;53.30
34137;DHT22;20414;50.860;4.382;2022-08-21T16:34:17;24.70;53.30
34137;DHT22;20414;50.860;4.382;2022-08-21T16:36:43;24.70;53.40
34137;DHT22;20414;50.860;4.382;2022-08-21T16:39:08;24.70;53.30
34137;DHT22;20414;50.860;4.382;2022-08-21T16:41:35;24.70;53.40
34137;DHT22;20414;50.860;4.382;2022-08-21T16:44:02;24.70;53.30
34137;DHT22;20414;50.860;4.382;2022-08-21T16:46:33;24.70;53.30
34137;DHT22;20414;50.860;4.382;2022-08-21T16:49:00;24.70;53.30
34137;DHT22;20414;50.860;4.382;2022-08-21T16:51:26;24.70;53.30
34137;DHT22;20414;50.860;4.382;2022-08-21T16:53:51;24.70;53.30
34137;DHT22;20414;50.860;4.382;2022-08-21T16:56:18;24.70;53.30
34137;DHT22;20414;50.860;4.382;2022-08-21T16:58:46;24.70;53.90
34137;DHT22;20414;50.860;4.382;2022-08-21T17:01:15;24.70;53.30
34137;DHT22;20414;50.860;4.382;2022-08-21T17:03:43;24.70;53.30
34137;DHT22;20414;50.860;4.382;2022-08-21T17:06:10;24.70;53.30
34137;DHT22;20414;50.860;4.382;2022-08-21T17:08:37;24.70;53.30
34137;DHT22;20414;50.860;4.382;2022-08-21T17:11:05;24.70;53.30
34137;DHT22;20414;50.860;4.382;2022-08-21T17:13:32;24.70;53.30